Algona, IA

4:15 AM CDT on August 02, 2014 (GMT -0500)
Algona Municipal (KAXA) Elev 1220 ft | 43.08 °N, 94.27 °W | Change Station

Current weather conditions updated 40 minutes ago

Clear
Clear
63 °F
Feels Like 63 °F
N
7
Wind Variable Wind from WSW

Today is forecast to be Warmer than yesterday.

Today
High -- | Low -- °F
--% Chance of Precip.
Yesterday
High -- | Low -- °F
Precip. -- in
6:08 AM 8:36 PM
Waxing Crescent, 34% visible
Pressure 30.13 in
Visibility 10.0 miles
Clouds Clear
Dew Point 61 °F
Humidity 94%
Rainfall 0.00 in
Snow Depth Not available.
UV 0 out of 12
Pollen 6.80 out of 12
Air Quality Not available.
Flu Activity Not available.
METAR KAXA 020835Z AUTO 24006KT 10SM CLR 17/16 A3013 RMK AO2

More Conditions Fewer Conditions

Pressure 30.13 in
Visibility 10.0 miles
Clouds Clear
Dew Point 61 °F
Humidity 94%
Rainfall 0.00 in
Snow Depth Not available.
UV 0 out of 12
Pollen 6.80 out of 12
Air Quality Not available.
Flu Activity Not available.
METAR KAXA 020835Z AUTO 24006KT 10SM CLR 17/16 A3013 RMK AO2

More Conditions Fewer Conditions

10-Day Weather Forecast

Almanac

Astronomy

Aug. 02, 2014 Rise Set
Actual Time 6:08 AM CDT 8:36 PM CDT
Civil Twilight 5:36 AM CDT 9:09 PM CDT
Nautical Twilight 4:56 AM CDT 9:48 PM CDT
Astronomical Twilight 4:11 AM CDT 10:33 PM CDT
Moon 12:42 PM CDT 11:44 PM CDT
Length of Visible Light 15h 32m
Length of Day
14h 28m
Tomorrow will be 2m 17s shorter.
Waxing Crescent, 34% of the Moon is Illuminated
Today
Waxing Crescent
Aug 3
First Quarter
Aug 10
Full
Aug 17
Last Quarter
Aug 25
New

Today's Extremes

State Highs State Lows

Community

WunderPhotos

Upload Photos

1,739,850 photos uploaded!

Nearby

Snow Depth

Station Depth Elevation
No new snow has been reported.

Earthquake Activity

City Distance Mag. Time & Date
No recent earthquake activity has been reported nearby.
Minimum magnitude displayed is 2.5.

Coastal Water Temperatures

Place Temperature
No Stations Reporting

Nearby Weather Stations

Station Location Temp. Dew Point Humidity Wind Precip. Elev Updated Type
Farm Acreage, Bode, IA 61.1 °F 59 °F 93% NW  at  0.0 mph 0.00 in / hr 1130 ft 4:11 AM CDT Normal
SW Ottosen, OTTOSEN, IA 61.5 °F 59 °F 91% West  at  3.8 mph 0.00 in / hr 1175 ft 4:14 AM CDT Rapid Fire
North, Rolfe, IA 59.0 °F 33 °F 37% WNW  at  0.0 mph 0.00 in / hr 1175 ft 4:07 AM CDT Normal
Erin Township Trading Post, Britt, IA 63.3 °F 60 °F 89% SSW  at  0.0 mph 0.00 in / hr 1178 ft 4:02 AM CDT Normal
273 1st ST SW, Britt, IA 62.6 °F 60 °F 91% SSW  at  0.0 mph 0.00 in / hr 1214 ft 4:03 AM CDT Normal
Plover Pit, Plover, IA 63.6 °F 60 °F 89% West  at  3.0 mph 0.00 in / hr 1190 ft 4:15 AM CDT Normal
Dakota City, IA 62.5 °F 60 °F 92% WSW  at  0.0 mph 0.00 in / hr 1130 ft 4:11 AM CDT Normal
Mallard, Mallard, IA 64.3 °F 61 °F 88% SW  at  3.0 mph 0.00 in / hr 1224 ft 4:02 AM CDT Normal

Show More Stations Show Fewer Stations